Time;durP1;ratioP1;P1;durP2;ratioP2;P2;SDS_P1;SDS_P2;PMS_P1;PMS_P2;Temp;Humidity;BMP_temperature;BMP_pressure;BME280_temperature;BME280_humidity;BME280_pressure;Samples;Min_cycle;Max_cycle;Signal;HPM_P1;HPM_P2
2022/09/15 00:00:26;;;;;;;38.63;22.80;;;;;;;13.62;94.64;99271.66;5093174;28;20462;-62
2022/09/15 00:02:53;;;;;;;36.50;24.00;;;;;;;13.68;94.54;99273.63;5100084;28;20442;-62
2022/09/15 00:05:20;;;;;;;38.43;24.60;;;;;;;13.66;94.45;99273.00;5107680;28;20457;-62
2022/09/15 00:07:48;;;;;;;40.10;23.70;;;;;;;13.60;94.90;99271.03;5107800;28;20460;-62
2022/09/15 00:10:15;;;;;;;37.77;22.93;;;;;;;13.66;95.06;99266.75;5114534;27;20450;-62
2022/09/15 00:12:42;;;;;;;38.60;24.83;;;;;;;13.68;94.66;99270.09;5121461;28;20477;-63
2022/09/15 00:15:12;;;;;;;40.23;24.20;;;;;;;13.55;95.05;99260.00;5112183;28;20909;-62
2022/09/15 00:17:38;;;;;;;37.00;22.10;;;;;;;13.57;95.63;99268.69;5109473;28;20477;-63
2022/09/15 00:20:06;;;;;;;43.57;23.30;;;;;;;13.51;96.01;99272.13;5103934;28;20439;-63
2022/09/15 00:22:33;;;;;;;39.27;24.00;;;;;;;13.54;96.22;99272.59;5112687;28;20540;-63
2022/09/15 00:25:01;;;;;;;43.47;25.60;;;;;;;13.62;96.34;99276.22;5100452;28;20486;-62
2022/09/15 00:27:27;;;;;;;43.27;25.23;;;;;;;13.63;96.35;99269.84;5103340;28;20500;-65
2022/09/15 00:29:54;;;;;;;48.80;26.90;;;;;;;13.66;96.26;99267.63;5101559;28;20833;-62
2022/09/15 00:32:20;;;;;;;43.80;26.13;;;;;;;13.63;96.77;99277.91;5100257;28;20518;-63
2022/09/15 00:34:49;;;;;;;44.23;26.60;;;;;;;13.61;96.77;99271.84;5100550;28;20510;-62
2022/09/15 00:37:16;;;;;;;44.10;25.43;;;;;;;13.73;96.23;99273.06;5100383;28;20507;-63
2022/09/15 00:39:43;;;;;;;41.03;24.77;;;;;;;13.68;96.42;99273.63;5094281;28;20478;-63
2022/09/15 00:42:14;;;;;;;45.83;27.93;;;;;;;13.63;96.93;99267.16;5100382;28;20524;-63
2022/09/15 00:44:59;;;;;;;45.73;25.87;;;;;;;13.54;97.29;99272.59;5100651;28;20489;-63
2022/09/15 00:47:29;;;;;;;46.27;24.50;;;;;;;13.73;97.42;99278.44;5115044;28;21255;-62
2022/09/15 00:49:58;;;;;;;46.43;26.20;;;;;;;13.72;97.03;99271.41;5103865;28;20556;-62
2022/09/15 00:52:29;;;;;;;43.37;26.10;;;;;;;13.66;97.60;99274.81;5112228;28;20525;-63
2022/09/15 00:54:59;;;;;;;46.50;26.13;;;;;;;13.72;97.12;99264.19;5096493;28;20486;-63
2022/09/15 00:57:29;;;;;;;47.60;26.07;;;;;;;13.67;96.86;99265.75;5116951;28;20510;-63
2022/09/15 00:59:57;;;;;;;53.60;26.87;;;;;;;13.70;96.57;99268.91;5106798;28;20467;-63
2022/09/15 01:02:27;;;;;;;49.57;25.70;;;;;;;13.69;97.01;99267.22;5115248;28;20557;-63
2022/09/15 01:04:55;;;;;;;47.20;26.23;;;;;;;13.66;96.55;99269.44;5103003;28;20495;-63
2022/09/15 01:07:25;;;;;;;47.70;27.20;;;;;;;13.53;96.48;99265.56;5114946;28;20502;-63
2022/09/15 01:09:54;;;;;;;44.53;25.90;;;;;;;13.48;96.96;99259.06;5101420;28;20435;-63
2022/09/15 01:12:21;;;;;;;49.10;25.93;;;;;;;13.40;96.87;99256.47;5105859;28;20473;-64
2022/09/15 01:14:50;;;;;;;44.43;24.33;;;;;;;13.33;96.68;99257.22;5117912;28;20510;-64
2022/09/15 01:17:23;;;;;;;50.27;27.10;;;;;;;13.33;96.67;99267.09;5115333;28;20526;-64
2022/09/15 01:20:24;;;;;;;44.03;25.70;;;;;;;13.23;96.28;99270.03;5096390;28;20495;-64
2022/09/15 01:23:13;;;;;;;56.53;25.90;;;;;;;13.17;96.40;99263.50;5110219;28;20453;-64
2022/09/15 01:25:56;;;;;;;44.90;24.03;;;;;;;13.09;95.76;99260.06;5100959;28;20479;-63
2022/09/15 01:28:34;;;;;;;46.00;24.23;;;;;;;13.00;96.06;99268.22;5106503;28;20544;-63
2022/09/15 01:31:04;;;;;;;40.00;24.53;;;;;;;12.93;95.83;99269.09;5089087;28;20542;-62
2022/09/15 01:33:32;;;;;;;42.80;23.67;;;;;;;12.89;95.97;99279.34;5119697;28;20478;-63
2022/09/15 01:36:08;;;;;;;41.23;23.70;;;;;;;12.83;95.57;99277.41;5114473;28;20475;-64
2022/09/15 01:38:46;;;;;;;50.53;25.67;;;;;;;12.81;95.70;99279.41;5098685;28;20556;-63
2022/09/15 01:41:16;;;;;;;45.67;24.27;;;;;;;12.75;95.77;99282.81;5114755;28;20479;-63
2022/09/15 01:43:47;;;;;;;49.50;25.47;;;;;;;12.70;95.76;99271.78;5114523;28;20505;-63
2022/09/15 01:46:17;;;;;;;41.83;23.97;;;;;;;12.69;95.70;99275.47;5111969;28;20525;-62
2022/09/15 01:48:45;;;;;;;42.40;24.40;;;;;;;12.66;95.71;99275.84;5109090;28;20734;-63
2022/09/15 01:51:11;;;;;;;41.43;23.70;;;;;;;12.62;95.88;99278.88;5103461;28;20501;-63
2022/09/15 01:53:38;;;;;;;45.80;24.50;;;;;;;12.66;96.17;99279.38;5096860;28;20458;-63
2022/09/15 01:56:07;;;;;;;41.97;24.30;;;;;;;12.67;96.05;99277.50;5097551;28;20475;-63
2022/09/15 01:58:35;;;;;;;41.67;24.43;;;;;;;12.65;96.30;99284.91;5113861;28;20539;-64
2022/09/15 02:01:04;;;;;;;47.77;24.70;;;;;;;12.59;96.51;99276.56;5112634;28;20479;-63
2022/09/15 02:03:37;;;;;;;41.30;22.00;;;;;;;12.55;96.87;99280.59;5099049;28;20909;-64
2022/09/15 02:06:08;;;;;;;45.03;22.93;;;;;;;12.52;96.79;99282.81;5111094;28;20493;-63
2022/09/15 02:08:41;;;;;;;38.47;21.20;;;;;;;12.51;96.63;99275.78;5099824;28;20450;-63
2022/09/15 02:11:14;;;;;;;47.77;22.73;;;;;;;12.49;96.88;99280.47;5111454;28;20477;-63
2022/09/15 02:13:47;;;;;;;41.70;23.50;;;;;;;12.39;96.74;99268.16;5115849;28;20455;-63
2022/09/15 02:16:18;;;;;;;41.27;21.90;;;;;;;12.38;96.41;99276.38;5097782;28;20481;-63
2022/09/15 02:18:57;;;;;;;38.87;22.87;;;;;;;12.34;96.82;99278.56;5098683;28;20499;-63
2022/09/15 02:21:28;;;;;;;43.30;21.77;;;;;;;12.32;96.75;99279.72;5104880;28;20999;-63
2022/09/15 02:24:02;;;;;;;43.27;22.80;;;;;;;12.37;96.69;99277.34;5114271;28;20630;-62
2022/09/15 02:26:29;;;;;;;35.83;22.37;;;;;;;12.33;96.89;99276.06;5099423;28;20496;-62
2022/09/15 02:28:57;;;;;;;36.40;20.73;;;;;;;12.26;96.44;99269.72;5121900;28;20469;-62
2022/09/15 02:31:25;;;;;;;40.83;21.97;;;;;;;12.18;96.77;99271.41;5117905;28;20474;-62
2022/09/15 02:33:56;;;;;;;36.50;21.77;;;;;;;12.24;96.74;99267.22;5105990;28;20477;-63
2022/09/15 02:36:24;;;;;;;47.10;22.70;;;;;;;12.41;96.25;99268.78;5109987;28;20504;-64
2022/09/15 02:38:55;;;;;;;38.50;21.07;;;;;;;12.38;95.58;99268.31;5112356;28;20567;-63
2022/09/15 02:41:22;;;;;;;35.40;20.00;;;;;;;12.19;95.88;99259.69;5109058;28;20474;-63
2022/09/15 02:43:49;;;;;;;37.23;20.63;;;;;;;12.03;96.18;99267.78;5111508;28;20499;-63
2022/09/15 02:46:18;;;;;;;33.20;19.57;;;;;;;11.91;96.07;99253.97;5108930;28;20513;-63
2022/09/15 02:48:45;;;;;;;33.10;18.53;;;;;;;12.02;96.56;99258.09;5095426;28;20466;-63
2022/09/15 02:51:13;;;;;;;39.20;20.80;;;;;;;12.04;96.28;99261.44;5102425;28;20481;-63
2022/09/15 02:53:41;;;;;;;36.73;19.83;;;;;;;11.93;96.04;99261.84;5102961;28;20473;-64
2022/09/15 02:56:08;;;;;;;34.37;18.17;;;;;;;11.86;96.07;99261.66;5106640;28;20473;-63
2022/09/15 02:58:35;;;;;;;31.90;18.43;;;;;;;11.83;96.46;99254.78;5123177;28;20462;-63
2022/09/15 03:01:02;;;;;;;31.03;18.90;;;;;;;11.80;96.00;99259.66;5122201;28;20473;-63
2022/09/15 03:03:29;;;;;;;34.13;19.80;;;;;;;11.89;96.24;99253.28;5103032;28;20455;-63
2022/09/15 03:06:15;;;;;;;32.50;19.33;;;;;;;12.03;96.51;99263.28;5102062;28;20509;-64
2022/09/15 03:08:43;;;;;;;36.10;19.50;;;;;;;11.96;96.32;99259.66;5123031;28;20434;-63
2022/09/15 03:11:11;;;;;;;31.23;19.27;;;;;;;12.01;96.88;99256.44;5118953;28;20779;-64
2022/09/15 03:13:38;;;;;;;29.73;17.90;;;;;;;12.12;97.48;99260.59;5109353;28;20488;-64
2022/09/15 03:16:08;;;;;;;32.23;18.10;;;;;;;12.26;97.06;99256.34;5106500;28;20465;-64
2022/09/15 03:18:35;;;;;;;30.67;17.60;;;;;;;12.30;97.14;99265.69;5107054;28;20463;-63
2022/09/15 03:21:02;;;;;;;31.70;18.10;;;;;;;12.31;97.29;99262.81;5106741;28;20482;-64
2022/09/15 03:23:28;;;;;;;34.97;19.30;;;;;;;12.40;96.97;99263.59;5110125;28;20678;-64
2022/09/15 03:25:58;;;;;;;34.80;18.93;;;;;;;12.46;97.11;99264.75;5119880;28;20544;-64
2022/09/15 03:28:25;;;;;;;30.27;18.10;;;;;;;12.49;97.31;99264.41;5095792;28;20446;-64
2022/09/15 03:30:51;;;;;;;34.33;18.50;;;;;;;12.59;97.03;99262.31;5102058;28;20478;-64
2022/09/15 03:33:18;;;;;;;33.80;17.93;;;;;;;12.57;96.90;99272.41;5107924;28;20968;-63
2022/09/15 03:35:45;;;;;;;30.40;18.73;;;;;;;12.58;97.18;99271.38;5119112;28;20470;-63
2022/09/15 03:38:12;;;;;;;29.87;17.30;;;;;;;12.62;96.92;99275.38;5122629;28;20490;-63
2022/09/15 03:40:39;;;;;;;32.83;18.33;;;;;;;12.65;97.11;99274.16;5104756;28;20490;-63
2022/09/15 03:43:07;;;;;;;31.03;18.63;;;;;;;12.71;96.64;99279.66;5097943;28;20557;-63
2022/09/15 03:45:33;;;;;;;26.53;17.13;;;;;;;12.72;96.57;99278.63;5106269;28;20479;-64
2022/09/15 03:48:00;;;;;;;30.73;19.10;;;;;;;12.80;96.77;99277.75;5120691;28;20715;-64
2022/09/15 03:50:28;;;;;;;29.93;17.60;;;;;;;12.76;96.71;99282.66;5121183;28;20466;-64
2022/09/15 03:52:55;;;;;;;32.77;18.57;;;;;;;12.73;96.84;99285.69;5105523;28;20471;-64
2022/09/15 03:55:21;;;;;;;30.67;17.60;;;;;;;12.85;96.62;99272.69;5115093;28;21093;-64
2022/09/15 03:57:48;;;;;;;28.17;16.70;;;;;;;12.86;96.10;99274.34;5086639;28;20469;-63
2022/09/15 04:00:16;;;;;;;28.27;17.00;;;;;;;12.96;95.76;99268.75;5099157;28;20503;-63
2022/09/15 04:02:42;;;;;;;32.50;18.47;;;;;;;12.93;95.97;99269.09;5103525;28;20431;-64
2022/09/15 04:05:12;;;;;;;33.03;18.83;;;;;;;12.96;95.77;99271.44;5109563;28;20969;-63
2022/09/15 04:07:39;;;;;;;32.17;19.37;;;;;;;12.99;95.42;99263.03;5113907;28;20446;-64
2022/09/15 04:10:06;;;;;;;34.73;20.07;;;;;;;13.06;95.16;99266.66;5122565;28;20498;-63
2022/09/15 04:12:33;;;;;;;30.93;18.57;;;;;;;13.10;94.97;99269.81;5122032;28;20483;-63
2022/09/15 04:15:00;;;;;;;29.30;18.60;;;;;;;12.99;95.22;99265.72;5122653;28;20497;-63
2022/09/15 04:17:28;;;;;;;29.77;18.33;;;;;;;12.95;95.38;99269.75;5096506;28;20506;-64
2022/09/15 04:19:55;;;;;;;32.77;19.60;;;;;;;13.05;95.42;99280.25;5102671;28;20509;-65
2022/09/15 04:22:21;;;;;;;31.63;18.30;;;;;;;13.01;95.50;99274.41;5109470;28;20505;-64
2022/09/15 04:24:49;;;;;;;31.47;19.67;;;;;;;13.07;95.17;99270.16;5122079;28;20454;-65
2022/09/15 04:27:16;;;;;;;32.50;20.00;;;;;;;13.06;94.88;99281.94;5099207;28;20522;-64
2022/09/15 04:29:46;;;;;;;31.93;19.57;;;;;;;13.04;94.97;99271.38;5101743;28;20459;-64
2022/09/15 04:32:12;;;;;;;30.03;19.53;;;;;;;13.04;94.92;99271.38;5101331;28;20574;-65
2022/09/15 04:34:40;;;;;;;30.30;19.03;;;;;;;13.07;94.52;99278.22;5091238;28;20462;-65
2022/09/15 04:37:07;;;;;;;26.80;19.10;;;;;;;13.21;94.27;99284.63;5103743;28;20474;-67
2022/09/15 04:39:34;;;;;;;31.77;19.53;;;;;;;13.22;93.61;99278.25;5106495;28;20495;-68
2022/09/15 04:42:04;;;;;;;26.13;18.17;;;;;;;13.19;93.29;99280.28;5103316;28;20474;-68
2022/09/15 04:44:30;;;;;;;25.20;17.70;;;;;;;13.22;92.92;99286.31;5094134;28;21061;-68
2022/09/15 04:46:57;;;;;;;27.77;17.67;;;;;;;13.22;92.82;99281.78;5107078;28;20507;-68
2022/09/15 04:49:24;;;;;;;24.70;17.13;;;;;;;13.18;93.05;99285.84;5090682;28;20474;-68
2022/09/15 04:51:52;;;;;;;23.57;16.50;;;;;;;13.18;92.95;99273.25;5086275;28;20501;-68
2022/09/15 04:54:19;;;;;;;30.67;18.07;;;;;;;13.23;92.83;99272.72;5114334;28;20482;-67
2022/09/15 04:56:46;;;;;;;24.67;17.00;;;;;;;13.25;92.44;99275.22;5119242;28;20907;-68
2022/09/15 04:59:14;;;;;;;21.00;17.10;;;;;;;13.37;91.93;99285.34;5121063;28;20488;-68
2022/09/15 05:01:41;;;;;;;22.77;17.23;;;;;;;13.30;91.78;99278.19;5101710;28;20479;-69
2022/09/15 05:04:07;;;;;;;22.40;16.40;;;;;;;13.12;92.44;99282.03;5102498;28;20788;-67
2022/09/15 05:06:35;;;;;;;26.20;18.97;;;;;;;13.23;92.26;99285.28;5099497;28;20493;-64
2022/09/15 05:09:04;;;;;;;25.50;17.97;;;;;;;13.27;92.14;99283.91;5101466;28;20466;-65
2022/09/15 05:11:31;;;;;;;25.50;18.93;;;;;;;13.22;92.30;99286.31;5100878;28;20501;-66
2022/09/15 05:13:58;;;;;;;27.90;19.57;;;;;;;13.27;92.40;99282.06;5100946;28;20477;-67
2022/09/15 05:16:27;;;;;;;21.77;18.47;;;;;;;13.19;92.80;99272.25;5099076;28;20479;-67
2022/09/15 05:18:55;;;;;;;24.67;18.10;;;;;;;13.28;92.19;99278.38;5100372;28;20451;-67
2022/09/15 05:21:23;;;;;;;24.53;18.17;;;;;;;13.26;92.16;99279.56;5102861;28;20475;-67
2022/09/15 05:23:50;;;;;;;22.50;16.23;;;;;;;13.42;92.23;99278.59;5100689;28;20487;-67
2022/09/15 05:26:20;;;;;;;27.60;17.27;;;;;;;13.42;92.08;99281.28;5116999;28;20473;-67
2022/09/15 05:28:47;;;;;;;27.57;18.07;;;;;;;13.46;92.03;99285.28;5107220;28;20508;-67
2022/09/15 05:31:18;;;;;;;24.60;16.90;;;;;;;13.50;91.41;99286.56;5103622;28;20492;-68
2022/09/15 05:33:45;;;;;;;24.47;16.90;;;;;;;13.51;91.50;99288.25;5120014;28;21073;-67
2022/09/15 05:36:13;;;;;;;24.30;18.03;;;;;;;13.61;91.19;99280.75;5104320;28;20466;-68
2022/09/15 05:38:39;;;;;;;22.70;17.47;;;;;;;13.71;90.81;99289.38;5102421;28;20523;-67
2022/09/15 05:41:07;;;;;;;22.00;18.33;;;;;;;13.80;90.64;99286.59;5106763;28;20521;-67
2022/09/15 05:43:38;;;;;;;23.60;18.93;;;;;;;13.65;90.38;99287.44;5088318;28;20483;-66
2022/09/15 05:46:06;;;;;;;20.47;16.50;;;;;;;13.71;90.11;99289.38;5099343;28;20471;-66
2022/09/15 05:48:33;;;;;;;20.77;16.73;;;;;;;13.58;90.34;99291.88;5099613;28;20447;-66
2022/09/15 05:51:00;;;;;;;21.40;16.73;;;;;;;13.71;90.34;99293.91;5099201;28;20467;-67
2022/09/15 05:53:27;;;;;;;19.80;16.57;;;;;;;13.83;89.93;99297.78;5084553;28;20475;-67
2022/09/15 05:55:55;;;;;;;21.33;15.70;;;;;;;13.87;89.27;99292.88;5095188;28;20495;-66
2022/09/15 05:58:22;;;;;;;18.90;15.50;;;;;;;13.88;89.30;99297.25;5100130;28;20488;-67
2022/09/15 06:00:50;;;;;;;22.37;14.90;;;;;;;13.89;89.05;99291.69;5098831;28;20475;-67
2022/09/15 06:03:17;;;;;;;17.17;14.83;;;;;;;13.80;88.94;99289.28;5095659;28;20442;-67
2022/09/15 06:05:44;;;;;;;17.80;15.57;;;;;;;13.75;89.56;99293.34;5098441;28;20496;-66
2022/09/15 06:08:11;;;;;;;18.77;15.50;;;;;;;13.94;88.88;99297.34;5100429;28;20493;-67
2022/09/15 06:10:38;;;;;;;19.70;13.73;;;;;;;13.78;88.95;99296.69;5098537;28;20547;-68
2022/09/15 06:13:04;;;;;;;20.23;14.23;;;;;;;13.75;89.39;99297.91;5087073;28;20546;-66
2022/09/15 06:15:31;;;;;;;16.03;12.93;;;;;;;13.76;89.15;99304.94;5094355;28;20514;-67
2022/09/15 06:18:00;;;;;;;19.50;13.47;;;;;;;13.84;89.09;99299.47;5090255;28;20488;-67
2022/09/15 06:20:26;;;;;;;16.73;14.33;;;;;;;13.76;89.14;99304.94;5090263;28;20458;-66
2022/09/15 06:22:54;;;;;;;15.43;12.30;;;;;;;13.89;88.77;99307.00;5115788;28;20483;-67
2022/09/15 06:25:21;;;;;;;16.37;13.47;;;;;;;13.81;88.83;99310.59;5105198;27;20458;-67
2022/09/15 06:27:49;;;;;;;15.80;13.27;;;;;;;13.86;88.65;99308.19;5090550;28;20815;-67
2022/09/15 06:30:16;;;;;;;13.87;12.20;;;;;;;13.92;88.27;99317.34;5098207;28;20423;-67
2022/09/15 06:32:43;;;;;;;17.00;12.10;;;;;;;14.01;88.33;99308.19;5117092;28;20449;-67
2022/09/15 06:35:11;;;;;;;15.43;13.03;;;;;;;14.03;88.48;99318.75;5110593;28;20501;-66
2022/09/15 06:37:38;;;;;;;18.13;13.33;;;;;;;14.03;88.09;99308.00;5119427;28;20427;-66
2022/09/15 06:40:06;;;;;;;16.00;13.90;;;;;;;14.12;87.25;99313.09;5098810;28;21321;-66
2022/09/15 06:42:33;;;;;;;15.27;13.17;;;;;;;14.21;87.38;99321.06;5096237;28;20526;-66
2022/09/15 06:44:59;;;;;;;19.60;14.23;;;;;;;14.11;86.82;99324.00;5098044;28;20494;-66
2022/09/15 06:47:32;;;;;;;14.20;12.70;;;;;;;13.99;87.04;99320.13;5096209;28;20475;-67
2022/09/15 06:49:59;;;;;;;16.17;12.40;;;;;;;14.07;86.98;99314.66;5094339;28;20439;-66
2022/09/15 06:52:27;;;;;;;15.80;12.20;;;;;;;14.07;86.74;99326.25;5093021;28;20526;-66
2022/09/15 06:54:54;;;;;;;15.20;11.97;;;;;;;14.08;87.15;99317.16;5094968;28;21238;-66
2022/09/15 06:57:20;;;;;;;15.33;12.10;;;;;;;14.19;86.72;99323.09;5096393;28;20499;-66
2022/09/15 06:59:47;;;;;;;15.03;11.37;;;;;;;14.28;86.60;99321.97;5097746;28;20471;-66
2022/09/15 07:02:14;;;;;;;13.00;10.90;;;;;;;14.43;85.94;99330.84;5096708;28;20521;-66
2022/09/15 07:04:40;;;;;;;16.47;12.07;;;;;;;14.31;86.17;99326.97;5097080;28;20508;-66
2022/09/15 07:07:07;;;;;;;15.10;10.50;;;;;;;14.28;85.65;99330.03;5097683;28;20500;-66
2022/09/15 07:09:35;;;;;;;12.03;10.40;;;;;;;14.46;85.32;99329.63;5098218;28;20490;-66
2022/09/15 07:12:03;;;;;;;14.00;12.27;;;;;;;14.42;85.36;99336.41;5097139;28;20473;-66
2022/09/15 07:14:30;;;;;;;14.00;9.80;;;;;;;14.50;85.17;99341.69;5102202;28;20459;-66
2022/09/15 07:16:56;;;;;;;12.10;9.30;;;;;;;14.62;84.68;99339.38;5101122;28;20491;-66
2022/09/15 07:19:23;;;;;;;11.60;9.70;;;;;;;14.63;84.14;99328.44;5100583;28;20501;-66
2022/09/15 07:21:51;;;;;;;15.83;10.67;;;;;;;15.10;83.16;99328.91;5112186;28;20497;-66
2022/09/15 07:24:18;;;;;;;12.53;10.07;;;;;;;14.89;83.10;99340.50;5113860;28;20455;-66
2022/09/15 07:26:46;;;;;;;10.83;9.40;;;;;;;14.81;83.15;99337.94;5100681;28;20496;-67
2022/09/15 07:29:13;;;;;;;14.17;10.00;;;;;;;14.86;82.66;99343.59;5102486;28;20442;-66
2022/09/15 07:31:39;;;;;;;12.20;8.53;;;;;;;14.96;81.48;99341.38;5101163;28;20475;-67
2022/09/15 07:34:07;;;;;;;13.33;9.63;;;;;;;14.91;82.09;99341.13;5100425;28;20482;-67
2022/09/15 07:36:34;;;;;;;10.50;9.03;;;;;;;15.04;82.19;99340.44;5090498;28;20489;-67
2022/09/15 07:39:02;;;;;;;11.03;9.03;;;;;;;15.06;80.44;99333.84;5094723;28;20472;-67
2022/09/15 07:41:30;;;;;;;13.67;9.03;;;;;;;15.06;80.91;99339.22;5100116;28;20483;-67
2022/09/15 07:43:59;;;;;;;10.10;9.10;;;;;;;15.27;80.64;99340.25;5101414;28;20498;-67
2022/09/15 07:46:29;;;;;;;12.67;9.37;;;;;;;15.38;79.87;99350.50;5101730;28;20479;-67
2022/09/15 07:48:56;;;;;;;13.20;9.17;;;;;;;15.34;79.84;99351.06;5085369;28;20470;-67
2022/09/15 07:51:23;;;;;;;12.23;8.83;;;;;;;15.14;80.13;99357.13;5100347;28;20517;-66
2022/09/15 07:53:52;;;;;;;9.50;8.00;;;;;;;15.62;78.82;99351.09;5096456;28;20455;-67
2022/09/15 07:56:19;;;;;;;8.77;7.87;;;;;;;15.39;79.10;99354.03;5098768;28;20505;-66
2022/09/15 07:58:47;;;;;;;9.97;8.80;;;;;;;15.73;77.89;99355.13;5097334;28;21116;-66
2022/09/15 08:01:16;;;;;;;11.90;8.93;;;;;;;15.71;77.71;99365.25;5094197;28;20483;-66
2022/09/15 08:03:44;;;;;;;8.90;8.00;;;;;;;15.56;77.88;99362.66;5109025;28;20450;-66
2022/09/15 08:06:11;;;;;;;10.50;8.13;;;;;;;15.82;77.22;99375.53;5103156;28;20573;-66
2022/09/15 08:08:38;;;;;;;9.87;7.37;;;;;;;15.91;76.42;99376.22;5121960;28;20446;-66
2022/09/15 08:11:09;;;;;;;8.20;6.70;;;;;;;16.05;76.21;99374.44;5115897;28;20909;-66
2022/09/15 08:13:36;;;;;;;12.53;7.43;;;;;;;16.40;75.26;99377.97;5123154;28;20435;-66
2022/09/15 08:16:07;;;;;;;8.33;7.50;;;;;;;16.30;74.88;99378.34;5120563;28;21265;-67
2022/09/15 08:18:35;;;;;;;7.30;6.23;;;;;;;16.67;73.82;99381.63;5100038;28;20498;-67
2022/09/15 08:21:05;;;;;;;29.77;7.30;;;;;;;16.20;74.32;99380.56;5100263;28;20502;-65
2022/09/15 08:23:32;;;;;;;11.63;7.70;;;;;;;16.27;74.86;99384.13;5100509;28;20466;-65
2022/09/15 08:25:59;;;;;;;7.97;6.80;;;;;;;16.81;72.75;99401.41;5099625;28;20466;-66
2022/09/15 08:28:26;;;;;;;8.00;6.40;;;;;;;16.88;71.09;99390.66;5101296;28;20454;-66
2022/09/15 08:30:58;;;;;;;8.40;6.50;;;;;;;16.79;71.68;99395.38;5100298;28;20481;-65
2022/09/15 08:33:25;;;;;;;5.90;4.90;;;;;;;17.01;69.54;99387.16;5100355;28;20439;-65
2022/09/15 08:35:53;;;;;;;5.87;4.73;;;;;;;17.37;68.76;99384.09;5096053;28;20484;-66
2022/09/15 08:38:20;;;;;;;7.93;4.30;;;;;;;17.64;67.47;99386.84;5099911;28;20760;-65
2022/09/15 08:40:47;;;;;;;9.87;3.97;;;;;;;17.78;67.14;99395.78;5098463;28;20551;-66
2022/09/15 08:43:18;;;;;;;5.13;3.60;;;;;;;17.99;65.92;99392.88;5100430;28;20912;-65
2022/09/15 08:45:49;;;;;;;5.07;4.60;;;;;;;18.61;65.53;99387.91;5094789;28;20476;-66
2022/09/15 08:48:17;;;;;;;6.60;3.70;;;;;;;19.93;59.53;99389.22;5097772;28;20451;-66
2022/09/15 08:50:45;;;;;;;6.13;3.13;;;;;;;19.90;58.69;99387.75;5099565;28;20471;-66
2022/09/15 08:53:17;;;;;;;5.07;2.80;;;;;;;20.45;55.63;99405.16;5097562;28;20452;-66
2022/09/15 08:55:47;;;;;;;3.73;2.93;;;;;;;20.82;54.28;99399.75;5098296;28;20490;-67
2022/09/15 08:58:17;;;;;;;6.50;3.00;;;;;;;20.87;52.98;99405.34;5100292;28;20827;-66
2022/09/15 09:00:45;;;;;;;4.70;3.00;;;;;;;19.98;55.88;99402.94;5095443;28;20540;-66
2022/09/15 09:03:31;;;;;;;4.90;2.53;;;;;;;19.68;56.00;99402.75;5093041;28;20437;-67
2022/09/15 09:06:04;;;;;;;4.20;2.27;;;;;;;19.71;55.86;99405.00;5089452;28;20472;-65
2022/09/15 09:08:45;;;;;;;5.50;2.80;;;;;;;20.23;53.13;99402.91;5095762;28;20451;-67
2022/09/15 09:11:19;;;;;;;6.00;2.73;;;;;;;21.02;52.78;99408.47;5095858;28;20570;-66
2022/09/15 09:13:49;;;;;;;4.10;3.00;;;;;;;21.25;51.61;99399.56;5092694;28;20445;-66
2022/09/15 09:16:42;;;;;;;4.60;2.30;;;;;;;21.11;51.19;99400.84;5101340;28;20466;-66
2022/09/15 09:19:34;;;;;;;5.13;2.40;;;;;;;21.38;51.54;99395.00;5099285;28;20458;-67
2022/09/15 09:22:05;;;;;;;5.07;3.03;;;;;;;21.04;51.39;99400.91;5082850;28;20576;-68
2022/09/15 09:24:37;;;;;;;4.40;2.27;;;;;;;23.12;47.54;99400.84;5099373;28;20482;-67
2022/09/15 09:27:05;;;;;;;4.30;2.50;;;;;;;23.10;46.29;99394.81;5099487;28;20478;-67
2022/09/15 09:29:34;;;;;;;4.10;2.70;;;;;;;23.56;46.41;99394.78;5100187;28;20456;-66
2022/09/15 09:32:01;;;;;;;2.87;2.03;;;;;;;24.33;43.02;99390.56;5098614;28;20483;-66
2022/09/15 09:34:34;;;;;;;4.63;2.20;;;;;;;23.61;44.81;99392.16;5096125;28;20486;-67
2022/09/15 09:37:08;;;;;;;4.90;1.70;;;;;;;21.68;47.05;99397.69;5091669;28;20508;-66
2022/09/15 09:39:37;;;;;;;2.73;1.60;;;;;;;21.29;46.68;99399.13;5092502;28;20448;-65
2022/09/15 09:42:04;;;;;;;5.13;2.17;;;;;;;20.74;48.90;99397.34;5091328;28;20488;-66
2022/09/15 09:44:31;;;;;;;5.17;1.80;;;;;;;20.45;50.81;99405.16;5099859;28;20485;-67
2022/09/15 09:47:05;;;;;;;5.00;1.77;;;;;;;20.40;51.72;99395.00;5097640;28;20475;-66
2022/09/15 09:49:34;;;;;;;6.67;1.83;;;;;;;20.00;52.93;99389.97;5082102;28;20540;-66
2022/09/15 09:52:02;;;;;;;5.33;2.00;;;;;;;19.31;54.08;99384.44;5100422;28;20471;-66
2022/09/15 09:54:31;;;;;;;10.20;2.30;;;;;;;19.32;54.83;99394.25;5097974;28;20455;-66
2022/09/15 09:57:22;;;;;;;3.50;1.80;;;;;;;18.80;54.86;99382.63;5100098;28;20561;-66
2022/09/15 09:59:50;;;;;;;5.90;2.20;;;;;;;19.36;54.80;99383.81;5100959;28;20432;-65
2022/09/15 10:02:20;;;;;;;3.23;1.30;;;;;;;20.12;51.79;99387.38;5098972;28;20530;-65
2022/09/15 10:04:49;;;;;;;2.67;1.40;;;;;;;20.82;48.17;99375.31;5094284;28;20448;-67
2022/09/15 10:07:17;;;;;;;5.20;1.50;;;;;;;20.61;47.32;99382.03;5098208;28;20484;-67
2022/09/15 10:09:52;;;;;;;3.40;0.80;;;;;;;20.46;48.40;99376.97;5087363;28;20451;-67
2022/09/15 10:12:30;;;;;;;4.13;0.83;;;;;;;20.51;46.56;99375.22;5082928;28;20486;-67
2022/09/15 10:14:58;;;;;;;3.00;0.90;;;;;;;21.22;44.76;99372.03;5093226;28;20480;-67
2022/09/15 10:17:39;;;;;;;2.87;1.00;;;;;;;22.38;40.94;99372.38;5108937;28;20468;-66
2022/09/15 10:20:24;;;;;;;4.10;1.23;;;;;;;22.04;41.79;99362.34;5090624;28;20476;-66
2022/09/15 10:22:51;;;;;;;2.57;1.13;;;;;;;22.13;41.31;99371.78;5090607;28;20454;-67
2022/09/15 10:25:35;;;;;;;3.47;1.17;;;;;;;21.01;43.15;99376.91;5094570;28;21003;-67
2022/09/15 10:28:12;;;;;;;5.10;1.10;;;;;;;19.98;43.59;99370.38;5091720;28;20470;-67
2022/09/15 10:30:40;;;;;;;3.10;0.83;;;;;;;19.99;44.65;99382.88;5116234;28;20465;-66
2022/09/15 10:33:20;;;;;;;3.00;1.00;;;;;;;20.22;44.23;99387.66;5097221;28;20889;-67
2022/09/15 10:35:47;;;;;;;6.10;1.03;;;;;;;21.20;42.34;99372.25;5099327;28;20475;-67
2022/09/15 10:38:18;;;;;;;3.80;1.33;;;;;;;23.11;39.75;99375.50;5097965;28;20459;-67
2022/09/15 10:40:48;;;;;;;2.93;1.17;;;;;;;24.41;36.03;99380.03;5090764;28;21215;-66
2022/09/15 10:43:28;;;;;;;2.93;1.10;;;;;;;24.33;36.23;99361.31;5099772;28;20505;-66
2022/09/15 10:46:00;;;;;;;2.87;0.80;;;;;;;24.53;35.39;99373.59;5093483;28;20512;-68
2022/09/15 10:48:41;;;;;;;4.07;1.00;;;;;;;23.01;38.83;99369.81;5094633;28;20555;-67
2022/09/15 10:51:16;;;;;;;2.40;0.90;;;;;;;21.44;41.41;99375.03;5088383;28;20474;-66
2022/09/15 10:53:59;;;;;;;4.83;1.40;;;;;;;21.98;41.38;99364.94;5097815;28;20433;-67
2022/09/15 10:56:30;;;;;;;1.93;1.00;;;;;;;20.61;43.58;99382.84;5100404;28;20480;-66
2022/09/15 10:59:17;;;;;;;4.30;1.07;;;;;;;19.65;45.74;99367.91;5101487;28;20449;-66
2022/09/15 11:01:56;;;;;;;5.27;1.10;;;;;;;19.59;46.95;99379.66;5099371;28;20489;-66
2022/09/15 11:04:40;;;;;;;6.13;1.23;;;;;;;19.15;48.01;99376.84;5094736;28;20480;-65
2022/09/15 11:07:12;;;;;;;3.53;1.03;;;;;;;19.30;47.18;99376.53;5082659;28;20510;-66
2022/09/15 11:09:47;;;;;;;4.83;1.23;;;;;;;19.37;46.75;99377.31;5082807;28;20543;-66
2022/09/15 11:12:29;;;;;;;3.87;0.90;;;;;;;19.83;46.73;99387.00;5082817;28;20502;-67
2022/09/15 11:15:15;;;;;;;4.00;1.10;;;;;;;19.73;47.17;99383.94;5084371;28;20444;-66
2022/09/15 11:17:54;;;;;;;4.47;1.40;;;;;;;20.38;45.06;99386.25;5102357;28;20502;-66
2022/09/15 11:20:32;;;;;;;6.20;1.20;;;;;;;20.85;44.31;99389.25;5095366;28;20511;-66
2022/09/15 11:23:03;;;;;;;6.20;1.53;;;;;;;20.31;45.11;99380.88;5100987;28;20918;-66
2022/09/15 11:25:34;;;;;;;4.50;1.07;;;;;;;20.38;45.37;99386.25;5100997;28;20584;-67
2022/09/15 11:28:04;;;;;;;3.20;1.17;;;;;;;20.37;45.34;99378.31;5103319;28;20903;-65
2022/09/15 11:30:36;;;;;;;6.30;1.33;;;;;;;22.28;41.54;99374.88;5101802;28;20476;-66
2022/09/15 11:33:05;;;;;;;8.23;2.20;;;;;;;23.04;40.03;99382.16;5101672;28;20487;-65